createdAt,value
2022-08-09T00:01:55.326Z,23.57
2022-08-09T00:06:19.300Z,23.50
2022-08-09T00:10:24.384Z,23.38
2022-08-09T00:14:37.827Z,23.34
2022-08-09T00:18:40.187Z,23.22
2022-08-09T00:22:44.871Z,23.16
2022-08-09T00:26:48.962Z,23.04
2022-08-09T00:30:51.986Z,22.99
2022-08-09T00:34:53.654Z,22.91
2022-08-09T00:38:55.478Z,22.86
2022-08-09T00:44:10.493Z,22.84
2022-08-09T00:47:18.589Z,22.72
2022-08-09T00:51:21.625Z,22.66
2022-08-09T00:56:03.766Z,22.51
2022-08-09T00:59:52.305Z,22.41
2022-08-09T01:04:02.419Z,22.35
2022-08-09T01:08:36.923Z,22.31
2022-08-09T01:13:16.877Z,22.23
2022-08-09T01:17:24.086Z,22.24
2022-08-09T01:22:12.377Z,22.15
2022-08-09T01:26:55.746Z,22.06
2022-08-09T01:31:00.945Z,22.04
2022-08-09T01:35:28.471Z,22.04
2022-08-09T01:39:39.317Z,22.01
2022-08-09T01:43:50.471Z,21.94
2022-08-09T01:47:55.708Z,21.89
2022-08-09T01:52:07.480Z,21.81
2022-08-09T01:56:11.214Z,21.82
2022-08-09T02:00:19.450Z,21.79
2022-08-09T02:04:45.375Z,21.70
2022-08-09T02:08:58.089Z,21.63
2022-08-09T02:13:05.190Z,21.55
2022-08-09T02:17:15.346Z,21.48
2022-08-09T02:21:39.560Z,21.45
2022-08-09T02:25:49.505Z,21.48
2022-08-09T02:29:57.252Z,21.43
2022-08-09T02:34:25.747Z,21.33
2022-08-09T02:38:50.031Z,21.26
2022-08-09T02:42:55.400Z,21.16
2022-08-09T02:47:05.529Z,21.03
2022-08-09T02:51:11.267Z,20.91
2022-08-09T02:55:20.599Z,20.90
2022-08-09T02:59:26.596Z,20.82
2022-08-09T03:04:12.592Z,20.79
2022-08-09T03:08:03.222Z,20.72
2022-08-09T03:12:11.058Z,20.72
2022-08-09T03:16:19.133Z,20.71
2022-08-09T03:20:22.005Z,20.72
2022-08-09T03:24:31.500Z,20.71
2022-08-09T03:28:49.493Z,20.75
2022-08-09T03:32:58.446Z,20.73
2022-08-09T03:37:10.550Z,20.73
2022-08-09T03:41:21.772Z,20.69
2022-08-09T03:46:05.126Z,20.76
2022-08-09T03:49:58.372Z,20.83
2022-08-09T03:54:00.875Z,20.82
2022-08-09T03:58:09.969Z,20.85
2022-08-09T04:02:19.975Z,20.83
2022-08-09T04:06:28.614Z,20.71
2022-08-09T04:10:31.368Z,20.72
2022-08-09T04:14:54.086Z,20.73
2022-08-09T04:18:54.818Z,20.72
2022-08-09T04:22:56.476Z,20.71
2022-08-09T04:27:00.784Z,20.68
2022-08-09T04:31:08.000Z,20.69
2022-08-09T04:35:13.187Z,20.60
2022-08-09T04:39:17.070Z,20.54
2022-08-09T04:43:19.249Z,20.50
2022-08-09T04:47:20.832Z,20.53
2022-08-09T04:51:22.674Z,20.54
2022-08-09T04:55:24.537Z,20.53
2022-08-09T04:59:26.332Z,20.57
2022-08-09T05:03:42.806Z,20.60
2022-08-09T05:07:46.511Z,20.58
2022-08-09T05:11:48.419Z,20.57
2022-08-09T05:15:56.386Z,20.60
2022-08-09T05:19:58.590Z,20.68
2022-08-09T05:24:02.154Z,20.72
2022-08-09T05:28:05.845Z,20.76
2022-08-09T05:32:08.344Z,20.79
2022-08-09T05:36:11.963Z,20.83
2022-08-09T05:40:18.603Z,20.88
2022-08-09T05:44:22.200Z,20.91
2022-08-09T05:48:33.011Z,20.94
2022-08-09T05:52:36.190Z,21.01
2022-08-09T05:56:55.263Z,21.01
2022-08-09T06:00:58.717Z,21.05
2022-08-09T06:05:00.449Z,21.03
2022-08-09T06:09:02.521Z,21.03
2022-08-09T06:13:18.641Z,21.06
2022-08-09T06:17:22.984Z,21.13
2022-08-09T06:21:24.552Z,21.18
2022-08-09T06:25:26.281Z,21.22
2022-08-09T06:29:28.060Z,21.28
2022-08-09T06:33:41.120Z,21.37
2022-08-09T06:37:52.778Z,21.42
2022-08-09T06:42:08.143Z,21.48
2022-08-09T06:46:13.180Z,21.59
2022-08-09T06:50:34.586Z,21.74
2022-08-09T06:54:37.134Z,21.85
2022-08-09T07:00:51.713Z,21.94
2022-08-09T07:03:06.045Z,22.08
2022-08-09T07:07:11.958Z,22.21
2022-08-09T07:11:17.630Z,22.31
2022-08-09T07:16:39.460Z,22.45
2022-08-09T07:19:48.064Z,22.56
2022-08-09T07:23:56.634Z,22.64
2022-08-09T07:28:00.074Z,22.75
2022-08-09T07:32:07.280Z,22.82
2022-08-09T07:36:09.430Z,22.93
2022-08-09T07:40:18.833Z,23.03
2022-08-09T07:44:32.856Z,23.16
2022-08-09T07:48:43.629Z,23.26
2022-08-09T07:52:46.020Z,23.41
2022-08-09T07:56:50.132Z,23.56
2022-08-09T08:00:58.885Z,23.67
2022-08-09T08:05:18.001Z,23.74
2022-08-09T08:09:39.738Z,23.90
2022-08-09T08:13:45.162Z,24.08
2022-08-09T08:17:58.836Z,24.26
2022-08-09T08:22:00.532Z,24.39
2022-08-09T08:26:06.498Z,24.52
2022-08-09T08:30:11.619Z,24.64
2022-08-09T08:34:13.975Z,24.68
2022-08-09T08:38:15.786Z,24.80
2022-08-09T08:42:17.463Z,24.93
2022-08-09T08:46:33.564Z,25.07
2022-08-09T08:50:37.559Z,25.19
2022-08-09T08:54:40.281Z,25.34
2022-08-09T08:58:44.436Z,25.42
2022-08-09T09:02:52.593Z,25.48
2022-08-09T09:07:00.731Z,25.60
2022-08-09T09:11:04.437Z,25.76
2022-08-09T09:15:07.684Z,25.85
2022-08-09T09:19:37.766Z,26.00
2022-08-09T09:23:49.583Z,26.16
2022-08-09T09:28:03.827Z,26.29
2022-08-09T09:32:15.698Z,26.36
2022-08-09T09:36:20.457Z,26.50
2022-08-09T09:40:41.059Z,26.65
2022-08-09T09:45:07.000Z,26.71
2022-08-09T09:49:18.671Z,26.75
2022-08-09T09:53:43.893Z,26.93
2022-08-09T09:58:02.902Z,27.02
2022-08-09T10:02:15.358Z,27.18
2022-08-09T10:06:17.993Z,27.34
2022-08-09T10:10:29.968Z,27.55
2022-08-09T10:14:33.949Z,27.72
2022-08-09T10:18:35.879Z,27.86
2022-08-09T10:22:39.151Z,28.08
2022-08-09T10:26:41.686Z,28.28
2022-08-09T10:32:21.011Z,28.48
2022-08-09T10:35:10.401Z,28.64
2022-08-09T10:39:19.454Z,28.80
2022-08-09T10:43:21.541Z,28.94
2022-08-09T10:48:16.615Z,29.07
2022-08-09T10:52:20.552Z,29.17
2022-08-09T10:56:40.934Z,29.36
2022-08-09T11:03:01.765Z,29.41
2022-08-09T11:05:25.499Z,29.49
2022-08-09T11:09:37.953Z,29.51
2022-08-09T11:13:50.001Z,29.60
2022-08-09T11:18:02.687Z,29.70
2022-08-09T11:22:18.663Z,29.89
2022-08-09T11:26:38.938Z,30.07
2022-08-09T11:30:47.966Z,30.21
2022-08-09T11:34:52.151Z,30.32
2022-08-09T11:39:01.717Z,30.37
2022-08-09T11:43:03.497Z,30.49
2022-08-09T11:47:05.283Z,30.64
2022-08-09T11:52:49.239Z,30.79
2022-08-09T11:55:51.979Z,30.81
2022-08-09T11:59:55.756Z,30.96
2022-08-09T12:04:23.855Z,31.07
2022-08-09T12:08:31.071Z,31.13
2022-08-09T12:12:49.047Z,31.18
2022-08-09T12:16:56.392Z,31.34
2022-08-09T12:21:02.696Z,31.42
2022-08-09T12:25:15.897Z,31.49
2022-08-09T12:29:33.915Z,31.60
2022-08-09T12:33:59.424Z,31.76
2022-08-09T12:38:29.454Z,31.91
2022-08-09T12:42:44.422Z,32.07
2022-08-09T12:46:50.069Z,32.14
2022-08-09T12:50:52.610Z,32.28
2022-08-09T12:56:10.745Z,32.47
2022-08-09T12:59:23.512Z,32.62
2022-08-09T13:03:52.779Z,32.84
2022-08-09T13:08:21.242Z,32.96
2022-08-09T13:13:09.438Z,32.93
2022-08-09T13:17:21.808Z,33.17
2022-08-09T13:22:45.539Z,33.28
2022-08-09T13:26:00.290Z,33.41
2022-08-09T13:30:48.937Z,33.62
2022-08-09T13:34:40.864Z,33.75
2022-08-09T13:38:57.752Z,33.77
2022-08-09T13:43:04.003Z,33.78
2022-08-09T13:47:29.131Z,33.94
2022-08-09T13:51:34.369Z,34.14
2022-08-09T13:55:36.935Z,34.27
2022-08-09T13:59:42.181Z,34.36
2022-08-09T14:04:04.879Z,34.42
2022-08-09T14:08:06.454Z,34.64
2022-08-09T14:12:08.794Z,34.84
2022-08-09T14:16:20.282Z,34.61
2022-08-09T14:20:30.541Z,34.46
2022-08-09T14:24:33.864Z,34.65
2022-08-09T14:28:35.613Z,34.87
2022-08-09T14:32:37.776Z,34.88
2022-08-09T14:36:42.794Z,34.80
2022-08-09T14:41:02.309Z,34.71
2022-08-09T14:46:58.131Z,34.75
2022-08-09T14:49:34.542Z,34.86
2022-08-09T14:53:46.779Z,34.99
2022-08-09T14:57:50.181Z,35.03
2022-08-09T15:01:51.772Z,35.06
2022-08-09T15:05:55.625Z,35.22
2022-08-09T15:10:07.268Z,35.07
2022-08-09T15:14:13.654Z,35.15
2022-08-09T15:18:15.386Z,35.36
2022-08-09T15:22:17.840Z,35.52
2022-08-09T15:26:31.428Z,35.43
2022-08-09T15:30:57.390Z,35.52
2022-08-09T15:34:56.301Z,35.44
2022-08-09T15:39:00.186Z,35.31
2022-08-09T15:43:02.079Z,35.37
2022-08-09T15:47:05.278Z,35.42
2022-08-09T15:51:11.597Z,35.29
2022-08-09T15:55:29.980Z,35.37
2022-08-09T15:59:37.502Z,35.28
2022-08-09T16:03:41.643Z,35.25
2022-08-09T16:07:45.816Z,35.27
2022-08-09T16:11:57.333Z,35.09
2022-08-09T16:16:09.957Z,35.12
2022-08-09T16:20:14.851Z,35.13
2022-08-09T16:24:33.732Z,35.10
2022-08-09T16:28:35.850Z,35.00
2022-08-09T16:32:56.934Z,34.95
2022-08-09T16:36:59.891Z,34.94
2022-08-09T16:41:03.890Z,34.78
2022-08-09T16:45:06.967Z,34.75
2022-08-09T16:49:16.832Z,34.58
2022-08-09T16:53:34.233Z,34.49
2022-08-09T16:58:08.718Z,34.48
2022-08-09T17:01:58.057Z,34.23
2022-08-09T17:06:08.144Z,33.92
2022-08-09T17:10:21.952Z,33.75
2022-08-09T17:14:28.090Z,33.57
2022-08-09T17:18:30.263Z,33.41
2022-08-09T17:22:32.791Z,33.22
2022-08-09T17:26:38.427Z,33.07
2022-08-09T17:30:40.333Z,32.87
2022-08-09T17:35:02.009Z,32.61
2022-08-09T17:39:11.142Z,32.31
2022-08-09T17:43:33.699Z,32.09
2022-08-09T17:47:49.351Z,31.84
2022-08-09T17:51:52.325Z,31.62
2022-08-09T17:56:00.015Z,31.37
2022-08-09T18:00:07.451Z,31.23
2022-08-09T18:04:13.637Z,31.10
2022-08-09T18:08:16.208Z,30.93
2022-08-09T18:12:20.217Z,30.82
2022-08-09T18:16:29.173Z,30.67
2022-08-09T18:20:56.592Z,30.57
2022-08-09T18:24:52.955Z,30.49
2022-08-09T18:30:42.422Z,30.38
2022-08-09T18:33:16.089Z,30.23
2022-08-09T18:37:46.894Z,30.10
2022-08-09T18:41:53.130Z,29.95
2022-08-09T18:46:50.533Z,29.85
2022-08-09T18:50:16.914Z,29.73
2022-08-09T18:54:28.474Z,29.58
2022-08-09T18:58:32.086Z,29.47
2022-08-09T19:02:34.938Z,29.39
2022-08-09T19:06:38.693Z,29.29
2022-08-09T19:10:40.464Z,29.21
2022-08-09T19:14:43.449Z,29.14
2022-08-09T19:18:45.774Z,29.08
2022-08-09T19:22:54.196Z,29.00
2022-08-09T19:26:56.114Z,28.89
2022-08-09T19:30:57.687Z,28.80
2022-08-09T19:34:59.314Z,28.72
2022-08-09T19:39:01.099Z,28.65
2022-08-09T19:43:10.253Z,28.60
2022-08-09T19:47:23.239Z,28.52
2022-08-09T19:51:25.937Z,28.45
2022-08-09T19:56:02.746Z,28.42
2022-08-09T19:59:59.961Z,28.38
2022-08-09T20:04:22.258Z,28.30
2022-08-09T20:08:35.509Z,28.27
2022-08-09T20:12:39.799Z,28.18
2022-08-09T20:16:49.964Z,28.13
2022-08-09T20:20:56.972Z,28.02
2022-08-09T20:24:58.565Z,27.96
2022-08-09T20:29:10.329Z,27.93
2022-08-09T20:33:20.719Z,27.86
2022-08-09T20:37:22.945Z,27.83
2022-08-09T20:41:34.712Z,27.72
2022-08-09T20:46:00.110Z,27.66
2022-08-09T20:50:01.108Z,27.61
2022-08-09T20:54:03.605Z,27.49
2022-08-09T20:58:19.698Z,27.38
2022-08-09T21:02:21.687Z,27.33
2022-08-09T21:06:24.964Z,27.25
2022-08-09T21:10:30.886Z,27.23
2022-08-09T21:14:40.529Z,27.20
2022-08-09T21:20:05.046Z,27.16
2022-08-09T21:23:08.891Z,27.11
2022-08-09T21:27:51.711Z,27.05
2022-08-09T21:31:49.437Z,26.97
2022-08-09T21:35:52.547Z,26.84
2022-08-09T21:39:54.509Z,26.78
2022-08-09T21:43:58.168Z,26.71
2022-08-09T21:48:00.365Z,26.65
2022-08-09T21:52:01.881Z,26.50
2022-08-09T21:56:03.689Z,26.34
2022-08-09T22:00:12.941Z,26.24
2022-08-09T22:04:14.507Z,26.17
2022-08-09T22:08:25.481Z,26.11
2022-08-09T22:12:30.798Z,26.04
2022-08-09T22:16:37.462Z,26.03
2022-08-09T22:20:40.029Z,26.03
2022-08-09T22:26:04.542Z,26.04
2022-08-09T22:29:07.004Z,26.01
2022-08-09T22:33:09.922Z,25.98
2022-08-09T22:37:12.443Z,25.94
2022-08-09T22:41:15.471Z,25.93
2022-08-09T22:48:14.813Z,25.91
2022-08-09T22:49:40.407Z,25.86
2022-08-09T22:53:58.523Z,25.81
2022-08-09T22:58:04.793Z,25.75
2022-08-09T23:02:06.699Z,25.66
2022-08-09T23:06:08.260Z,25.60
2022-08-09T23:10:16.076Z,25.54
2022-08-09T23:14:17.746Z,25.49
2022-08-09T23:18:40.631Z,25.45
2022-08-09T23:22:42.312Z,25.41
2022-08-09T23:26:43.923Z,25.31
2022-08-09T23:30:52.029Z,25.29
2022-08-09T23:34:53.825Z,25.26
2022-08-09T23:38:55.601Z,25.22
2022-08-09T23:42:57.160Z,25.22
2022-08-09T23:46:58.789Z,25.24
2022-08-09T23:51:00.338Z,25.27
2022-08-09T23:55:01.992Z,25.29
2022-08-09T23:59:05.724Z,25.35
